sensor_id;sensor_type;location;lat;lon;timestamp;temperature;humidity
871;DHT22;422;51.280;7.236;2023-12-04T00:00:48;-0.20;1.00
871;DHT22;422;51.280;7.236;2023-12-04T00:03:15;-0.20;1.00
871;DHT22;422;51.280;7.236;2023-12-04T00:05:43;-0.20;1.00
871;DHT22;422;51.280;7.236;2023-12-04T00:08:11;-0.30;1.00
871;DHT22;422;51.280;7.236;2023-12-04T00:10:39;-0.20;1.00
871;DHT22;422;51.280;7.236;2023-12-04T00:13:06;-0.20;1.00
871;DHT22;422;51.280;7.236;2023-12-04T00:15:33;-0.20;1.00
871;DHT22;422;51.280;7.236;2023-12-04T00:18:00;-0.20;1.00
871;DHT22;422;51.280;7.236;2023-12-04T00:20:28;-0.20;1.00
871;DHT22;422;51.280;7.236;2023-12-04T00:22:55;-0.20;1.00
871;DHT22;422;51.280;7.236;2023-12-04T00:25:23;-0.20;1.00
871;DHT22;422;51.280;7.236;2023-12-04T00:27:50;-0.10;1.00
871;DHT22;422;51.280;7.236;2023-12-04T00:30:18;-0.10;1.00
871;DHT22;422;51.280;7.236;2023-12-04T00:32:45;-0.10;1.00
871;DHT22;422;51.280;7.236;2023-12-04T00:35:13;-0.10;1.00
871;DHT22;422;51.280;7.236;2023-12-04T00:37:40;-0.10;1.00
871;DHT22;422;51.280;7.236;2023-12-04T00:40:08;0.00;1.00
871;DHT22;422;51.280;7.236;2023-12-04T00:42:37;0.00;1.00
871;DHT22;422;51.280;7.236;2023-12-04T00:45:05;0.00;1.00
871;DHT22;422;51.280;7.236;2023-12-04T00:47:33;0.00;1.00
871;DHT22;422;51.280;7.236;2023-12-04T00:50:00;0.00;1.00
871;DHT22;422;51.280;7.236;2023-12-04T00:52:27;0.00;1.00
871;DHT22;422;51.280;7.236;2023-12-04T00:54:54;0.00;1.00
871;DHT22;422;51.280;7.236;2023-12-04T00:57:21;0.00;1.00
871;DHT22;422;51.280;7.236;2023-12-04T00:59:50;0.10;1.00
871;DHT22;422;51.280;7.236;2023-12-04T01:02:17;0.10;1.00
871;DHT22;422;51.280;7.236;2023-12-04T01:04:44;0.10;1.00
871;DHT22;422;51.280;7.236;2023-12-04T01:07:11;0.10;1.00
871;DHT22;422;51.280;7.236;2023-12-04T01:09:38;0.00;1.00
871;DHT22;422;51.280;7.236;2023-12-04T01:12:06;0.00;1.00
871;DHT22;422;51.280;7.236;2023-12-04T01:14:33;0.10;99.90
871;DHT22;422;51.280;7.236;2023-12-04T01:17:05;0.10;99.90
871;DHT22;422;51.280;7.236;2023-12-04T01:19:33;0.10;99.90
871;DHT22;422;51.280;7.236;2023-12-04T01:22:00;0.10;99.90
871;DHT22;422;51.280;7.236;2023-12-04T01:24:27;0.10;1.00
871;DHT22;422;51.280;7.236;2023-12-04T01:26:55;0.10;1.00
871;DHT22;422;51.280;7.236;2023-12-04T01:29:22;0.10;99.90
871;DHT22;422;51.280;7.236;2023-12-04T01:31:49;0.10;99.90
871;DHT22;422;51.280;7.236;2023-12-04T01:34:17;0.10;99.90
871;DHT22;422;51.280;7.236;2023-12-04T01:36:45;0.10;99.90
871;DHT22;422;51.280;7.236;2023-12-04T01:39:12;0.10;99.90
871;DHT22;422;51.280;7.236;2023-12-04T01:41:40;0.10;99.90
871;DHT22;422;51.280;7.236;2023-12-04T01:44:07;0.00;99.90
871;DHT22;422;51.280;7.236;2023-12-04T01:46:34;0.00;99.90
871;DHT22;422;51.280;7.236;2023-12-04T01:49:02;0.00;99.90
871;DHT22;422;51.280;7.236;2023-12-04T01:51:31;0.10;99.90
871;DHT22;422;51.280;7.236;2023-12-04T01:53:59;0.10;99.90
871;DHT22;422;51.280;7.236;2023-12-04T01:56:27;0.00;99.90
871;DHT22;422;51.280;7.236;2023-12-04T01:58:54;0.00;99.90
871;DHT22;422;51.280;7.236;2023-12-04T02:01:22;0.00;99.90
871;DHT22;422;51.280;7.236;2023-12-04T02:03:50;0.00;99.90
871;DHT22;422;51.280;7.236;2023-12-04T02:06:18;0.00;99.90
871;DHT22;422;51.280;7.236;2023-12-04T02:08:48;0.00;99.90
871;DHT22;422;51.280;7.236;2023-12-04T02:11:15;0.00;99.90
871;DHT22;422;51.280;7.236;2023-12-04T02:13:43;0.00;99.90
871;DHT22;422;51.280;7.236;2023-12-04T02:16:12;0.00;99.90
871;DHT22;422;51.280;7.236;2023-12-04T02:18:41;0.00;99.90
871;DHT22;422;51.280;7.236;2023-12-04T02:21:09;0.00;99.90
871;DHT22;422;51.280;7.236;2023-12-04T02:23:36;0.00;99.90
871;DHT22;422;51.280;7.236;2023-12-04T02:26:09;0.00;99.90
871;DHT22;422;51.280;7.236;2023-12-04T02:28:37;0.00;99.90
871;DHT22;422;51.280;7.236;2023-12-04T02:31:07;0.00;99.90
871;DHT22;422;51.280;7.236;2023-12-04T02:33:35;0.00;99.90
871;DHT22;422;51.280;7.236;2023-12-04T02:36:04;0.10;99.90
871;DHT22;422;51.280;7.236;2023-12-04T02:38:32;0.10;99.90
871;DHT22;422;51.280;7.236;2023-12-04T02:40:59;0.10;99.90
871;DHT22;422;51.280;7.236;2023-12-04T02:43:28;0.00;99.90
871;DHT22;422;51.280;7.236;2023-12-04T02:45:55;0.10;99.90
871;DHT22;422;51.280;7.236;2023-12-04T02:48:22;0.00;99.90
871;DHT22;422;51.280;7.236;2023-12-04T02:50:49;0.10;99.90
871;DHT22;422;51.280;7.236;2023-12-04T02:53:17;0.00;99.90
871;DHT22;422;51.280;7.236;2023-12-04T02:55:44;0.10;99.90
871;DHT22;422;51.280;7.236;2023-12-04T02:58:11;0.10;99.90
871;DHT22;422;51.280;7.236;2023-12-04T03:00:40;0.10;99.90
871;DHT22;422;51.280;7.236;2023-12-04T03:03:07;0.10;99.90
871;DHT22;422;51.280;7.236;2023-12-04T03:05:34;0.20;99.90
871;DHT22;422;51.280;7.236;2023-12-04T03:08:01;0.20;99.90
871;DHT22;422;51.280;7.236;2023-12-04T03:10:29;0.20;99.90
871;DHT22;422;51.280;7.236;2023-12-04T03:12:56;0.20;99.90
871;DHT22;422;51.280;7.236;2023-12-04T03:15:23;0.20;99.90
871;DHT22;422;51.280;7.236;2023-12-04T03:17:52;0.20;99.90
871;DHT22;422;51.280;7.236;2023-12-04T03:20:19;0.20;99.90
871;DHT22;422;51.280;7.236;2023-12-04T03:22:46;0.20;99.90
871;DHT22;422;51.280;7.236;2023-12-04T03:25:14;0.20;99.90
871;DHT22;422;51.280;7.236;2023-12-04T03:27:41;0.20;99.90
871;DHT22;422;51.280;7.236;2023-12-04T03:30:09;0.20;99.90
871;DHT22;422;51.280;7.236;2023-12-04T03:32:36;0.20;99.90
871;DHT22;422;51.280;7.236;2023-12-04T03:35:05;0.20;99.90
871;DHT22;422;51.280;7.236;2023-12-04T03:37:32;0.20;99.90
871;DHT22;422;51.280;7.236;2023-12-04T03:39:59;0.20;99.90
871;DHT22;422;51.280;7.236;2023-12-04T03:42:26;0.20;99.90
871;DHT22;422;51.280;7.236;2023-12-04T03:44:54;0.20;99.90
871;DHT22;422;51.280;7.236;2023-12-04T03:47:21;0.20;99.90
871;DHT22;422;51.280;7.236;2023-12-04T03:49:49;0.30;99.90
871;DHT22;422;51.280;7.236;2023-12-04T03:52:17;0.30;99.90
871;DHT22;422;51.280;7.236;2023-12-04T03:54:45;0.30;99.90
871;DHT22;422;51.280;7.236;2023-12-04T03:57:12;0.30;99.90
871;DHT22;422;51.280;7.236;2023-12-04T03:59:39;0.30;99.90
871;DHT22;422;51.280;7.236;2023-12-04T04:02:06;0.30;99.90
871;DHT22;422;51.280;7.236;2023-12-04T04:04:33;0.30;99.90
871;DHT22;422;51.280;7.236;2023-12-04T04:07:00;0.30;99.90
871;DHT22;422;51.280;7.236;2023-12-04T04:09:29;0.30;99.90
871;DHT22;422;51.280;7.236;2023-12-04T04:11:56;0.30;99.90
871;DHT22;422;51.280;7.236;2023-12-04T04:14:23;0.30;99.90
871;DHT22;422;51.280;7.236;2023-12-04T04:16:50;0.30;99.90
871;DHT22;422;51.280;7.236;2023-12-04T04:19:17;0.30;99.90
871;DHT22;422;51.280;7.236;2023-12-04T04:21:44;0.30;99.90
871;DHT22;422;51.280;7.236;2023-12-04T04:24:11;0.30;99.90
871;DHT22;422;51.280;7.236;2023-12-04T04:26:40;0.30;99.90
871;DHT22;422;51.280;7.236;2023-12-04T04:29:07;0.30;99.90
871;DHT22;422;51.280;7.236;2023-12-04T04:31:35;0.30;99.90
871;DHT22;422;51.280;7.236;2023-12-04T04:34:02;0.30;99.90
871;DHT22;422;51.280;7.236;2023-12-04T04:36:30;0.30;99.90
871;DHT22;422;51.280;7.236;2023-12-04T04:38:57;0.40;99.90
871;DHT22;422;51.280;7.236;2023-12-04T04:41:24;0.30;99.90
871;DHT22;422;51.280;7.236;2023-12-04T04:43:53;0.30;99.90
871;DHT22;422;51.280;7.236;2023-12-04T04:46:20;0.30;99.90
871;DHT22;422;51.280;7.236;2023-12-04T04:48:47;0.30;99.90
871;DHT22;422;51.280;7.236;2023-12-04T04:51:14;0.30;99.90
871;DHT22;422;51.280;7.236;2023-12-04T04:53:41;0.30;99.90
871;DHT22;422;51.280;7.236;2023-12-04T04:56:09;0.30;99.90
871;DHT22;422;51.280;7.236;2023-12-04T04:58:38;0.30;99.90
871;DHT22;422;51.280;7.236;2023-12-04T05:01:08;0.20;99.90
871;DHT22;422;51.280;7.236;2023-12-04T05:03:35;0.30;99.90
871;DHT22;422;51.280;7.236;2023-12-04T05:06:02;0.30;99.90
871;DHT22;422;51.280;7.236;2023-12-04T05:08:29;0.30;99.90
871;DHT22;422;51.280;7.236;2023-12-04T05:10:57;0.30;99.90
871;DHT22;422;51.280;7.236;2023-12-04T05:13:24;0.30;99.90
871;DHT22;422;51.280;7.236;2023-12-04T05:15:51;0.20;99.90
871;DHT22;422;51.280;7.236;2023-12-04T05:18:20;0.20;99.90
871;DHT22;422;51.280;7.236;2023-12-04T05:20:47;0.20;99.90
871;DHT22;422;51.280;7.236;2023-12-04T05:23:14;0.20;99.90
871;DHT22;422;51.280;7.236;2023-12-04T05:25:41;0.20;99.90
871;DHT22;422;51.280;7.236;2023-12-04T05:28:09;0.20;99.90
871;DHT22;422;51.280;7.236;2023-12-04T05:30:36;0.30;99.90
871;DHT22;422;51.280;7.236;2023-12-04T05:33:04;0.30;99.90
871;DHT22;422;51.280;7.236;2023-12-04T05:35:32;0.20;99.90
871;DHT22;422;51.280;7.236;2023-12-04T05:38:00;0.20;99.90
871;DHT22;422;51.280;7.236;2023-12-04T05:40:28;0.20;99.90
871;DHT22;422;51.280;7.236;2023-12-04T05:42:55;0.20;99.90
871;DHT22;422;51.280;7.236;2023-12-04T05:45:22;0.20;99.90
871;DHT22;422;51.280;7.236;2023-12-04T05:47:49;0.20;99.90
871;DHT22;422;51.280;7.236;2023-12-04T05:50:18;0.20;99.90
871;DHT22;422;51.280;7.236;2023-12-04T05:52:47;0.20;99.90
871;DHT22;422;51.280;7.236;2023-12-04T05:55:14;0.10;99.90
871;DHT22;422;51.280;7.236;2023-12-04T05:57:41;0.10;99.90
871;DHT22;422;51.280;7.236;2023-12-04T06:00:09;0.10;99.90
871;DHT22;422;51.280;7.236;2023-12-04T06:02:38;0.10;99.90
871;DHT22;422;51.280;7.236;2023-12-04T06:05:06;0.20;99.90
871;DHT22;422;51.280;7.236;2023-12-04T06:07:34;0.20;99.90
871;DHT22;422;51.280;7.236;2023-12-04T06:10:04;0.10;99.90
871;DHT22;422;51.280;7.236;2023-12-04T06:12:32;0.10;99.90
871;DHT22;422;51.280;7.236;2023-12-04T06:14:59;0.10;99.90
871;DHT22;422;51.280;7.236;2023-12-04T06:17:25;0.10;99.90
871;DHT22;422;51.280;7.236;2023-12-04T06:19:53;0.10;99.90
871;DHT22;422;51.280;7.236;2023-12-04T06:22:21;0.20;99.90
871;DHT22;422;51.280;7.236;2023-12-04T06:24:48;0.20;99.90
871;DHT22;422;51.280;7.236;2023-12-04T06:27:19;0.20;99.90
871;DHT22;422;51.280;7.236;2023-12-04T06:29:47;0.20;99.90
871;DHT22;422;51.280;7.236;2023-12-04T06:32:15;0.20;99.90
871;DHT22;422;51.280;7.236;2023-12-04T06:34:42;0.20;99.90
871;DHT22;422;51.280;7.236;2023-12-04T06:37:10;0.20;99.90
871;DHT22;422;51.280;7.236;2023-12-04T06:39:39;0.20;99.90
871;DHT22;422;51.280;7.236;2023-12-04T06:42:08;0.20;99.90
871;DHT22;422;51.280;7.236;2023-12-04T06:44:37;0.30;99.90
871;DHT22;422;51.280;7.236;2023-12-04T06:47:05;0.30;99.90
871;DHT22;422;51.280;7.236;2023-12-04T06:49:34;0.20;99.90
871;DHT22;422;51.280;7.236;2023-12-04T06:52:02;0.20;99.90
871;DHT22;422;51.280;7.236;2023-12-04T06:54:31;0.20;99.90
871;DHT22;422;51.280;7.236;2023-12-04T06:56:58;0.10;99.90
871;DHT22;422;51.280;7.236;2023-12-04T06:59:25;0.10;99.90
871;DHT22;422;51.280;7.236;2023-12-04T07:01:55;0.10;99.90
871;DHT22;422;51.280;7.236;2023-12-04T07:04:22;0.10;99.90
871;DHT22;422;51.280;7.236;2023-12-04T07:06:49;0.20;99.90
871;DHT22;422;51.280;7.236;2023-12-04T07:09:16;0.10;99.90
871;DHT22;422;51.280;7.236;2023-12-04T07:11:46;0.10;99.90
871;DHT22;422;51.280;7.236;2023-12-04T07:14:13;0.10;99.90
871;DHT22;422;51.280;7.236;2023-12-04T07:16:41;0.10;99.90
871;DHT22;422;51.280;7.236;2023-12-04T07:19:10;0.10;99.90
871;DHT22;422;51.280;7.236;2023-12-04T07:21:39;0.10;99.90
871;DHT22;422;51.280;7.236;2023-12-04T07:24:06;0.10;99.90
871;DHT22;422;51.280;7.236;2023-12-04T07:26:34;0.20;99.90
871;DHT22;422;51.280;7.236;2023-12-04T07:29:01;0.20;99.90
871;DHT22;422;51.280;7.236;2023-12-04T07:31:28;0.20;99.90
871;DHT22;422;51.280;7.236;2023-12-04T07:33:56;0.20;99.90
871;DHT22;422;51.280;7.236;2023-12-04T07:36:24;0.20;99.90
871;DHT22;422;51.280;7.236;2023-12-04T07:38:51;0.30;99.90
871;DHT22;422;51.280;7.236;2023-12-04T07:41:19;0.30;99.90
871;DHT22;422;51.280;7.236;2023-12-04T07:43:47;0.30;99.90
871;DHT22;422;51.280;7.236;2023-12-04T07:46:14;0.30;99.90
871;DHT22;422;51.280;7.236;2023-12-04T07:48:42;0.30;99.90
871;DHT22;422;51.280;7.236;2023-12-04T07:51:09;0.40;99.90
871;DHT22;422;51.280;7.236;2023-12-04T07:53:38;0.40;99.90
871;DHT22;422;51.280;7.236;2023-12-04T07:56:06;0.40;99.90
871;DHT22;422;51.280;7.236;2023-12-04T07:58:33;0.40;99.90
871;DHT22;422;51.280;7.236;2023-12-04T08:01:01;0.50;99.90
871;DHT22;422;51.280;7.236;2023-12-04T08:03:28;0.50;99.90
871;DHT22;422;51.280;7.236;2023-12-04T08:05:55;0.50;99.90
871;DHT22;422;51.280;7.236;2023-12-04T08:08:22;0.50;99.90
871;DHT22;422;51.280;7.236;2023-12-04T08:10:51;0.50;99.90
871;DHT22;422;51.280;7.236;2023-12-04T08:13:18;0.60;99.90
871;DHT22;422;51.280;7.236;2023-12-04T08:15:46;0.60;99.90
871;DHT22;422;51.280;7.236;2023-12-04T08:18:13;0.60;99.90
871;DHT22;422;51.280;7.236;2023-12-04T08:20:40;0.60;99.90
871;DHT22;422;51.280;7.236;2023-12-04T08:23:08;0.60;99.90
871;DHT22;422;51.280;7.236;2023-12-04T08:25:35;0.60;99.90
871;DHT22;422;51.280;7.236;2023-12-04T08:28:05;0.60;99.90
871;DHT22;422;51.280;7.236;2023-12-04T08:30:34;0.70;99.90
871;DHT22;422;51.280;7.236;2023-12-04T08:33:01;0.70;99.90
871;DHT22;422;51.280;7.236;2023-12-04T08:35:29;0.70;99.90
871;DHT22;422;51.280;7.236;2023-12-04T08:37:56;0.70;99.90
871;DHT22;422;51.280;7.236;2023-12-04T08:40:23;0.70;99.90
871;DHT22;422;51.280;7.236;2023-12-04T08:42:50;0.80;99.90
871;DHT22;422;51.280;7.236;2023-12-04T08:45:19;0.80;99.90
871;DHT22;422;51.280;7.236;2023-12-04T08:47:46;0.80;99.90
871;DHT22;422;51.280;7.236;2023-12-04T08:50:15;0.80;99.90
871;DHT22;422;51.280;7.236;2023-12-04T08:52:42;0.80;99.90
871;DHT22;422;51.280;7.236;2023-12-04T08:55:10;0.90;99.90
871;DHT22;422;51.280;7.236;2023-12-04T08:57:38;0.90;99.90
871;DHT22;422;51.280;7.236;2023-12-04T09:00:06;0.90;99.90
871;DHT22;422;51.280;7.236;2023-12-04T09:02:36;1.00;99.90
871;DHT22;422;51.280;7.236;2023-12-04T09:05:04;1.00;99.90
871;DHT22;422;51.280;7.236;2023-12-04T09:07:30;1.00;99.90
871;DHT22;422;51.280;7.236;2023-12-04T09:09:57;1.10;99.90
871;DHT22;422;51.280;7.236;2023-12-04T09:12:24;1.10;99.90
871;DHT22;422;51.280;7.236;2023-12-04T09:14:52;1.10;99.90
871;DHT22;422;51.280;7.236;2023-12-04T09:17:19;1.10;99.90
871;DHT22;422;51.280;7.236;2023-12-04T09:19:48;1.10;99.90
871;DHT22;422;51.280;7.236;2023-12-04T09:22:16;1.10;99.90
871;DHT22;422;51.280;7.236;2023-12-04T09:24:43;1.10;99.90
871;DHT22;422;51.280;7.236;2023-12-04T09:27:10;1.10;99.90
871;DHT22;422;51.280;7.236;2023-12-04T09:29:38;1.20;99.90
871;DHT22;422;51.280;7.236;2023-12-04T09:32:05;1.20;99.90
871;DHT22;422;51.280;7.236;2023-12-04T09:34:33;1.20;99.90
871;DHT22;422;51.280;7.236;2023-12-04T09:37:01;1.30;99.90
871;DHT22;422;51.280;7.236;2023-12-04T09:39:29;1.30;99.90
871;DHT22;422;51.280;7.236;2023-12-04T09:41:57;1.30;99.90
871;DHT22;422;51.280;7.236;2023-12-04T09:44:26;1.30;99.90
871;DHT22;422;51.280;7.236;2023-12-04T09:46:55;1.30;99.90
871;DHT22;422;51.280;7.236;2023-12-04T09:49:23;1.30;99.90
871;DHT22;422;51.280;7.236;2023-12-04T09:51:51;1.30;99.90
871;DHT22;422;51.280;7.236;2023-12-04T09:54:20;1.30;99.90
871;DHT22;422;51.280;7.236;2023-12-04T09:56:49;1.30;99.90
871;DHT22;422;51.280;7.236;2023-12-04T09:59:17;1.30;99.90
871;DHT22;422;51.280;7.236;2023-12-04T10:01:45;1.30;99.90
871;DHT22;422;51.280;7.236;2023-12-04T10:04:13;1.30;99.90
871;DHT22;422;51.280;7.236;2023-12-04T10:06:41;1.30;99.90
871;DHT22;422;51.280;7.236;2023-12-04T10:09:10;1.40;99.90
871;DHT22;422;51.280;7.236;2023-12-04T10:11:41;1.30;99.90
871;DHT22;422;51.280;7.236;2023-12-04T10:14:14;1.40;99.90
871;DHT22;422;51.280;7.236;2023-12-04T10:16:43;1.30;99.90
871;DHT22;422;51.280;7.236;2023-12-04T10:19:19;1.40;99.90
871;DHT22;422;51.280;7.236;2023-12-04T10:21:47;1.40;99.90
871;DHT22;422;51.280;7.236;2023-12-04T10:24:27;1.40;99.90
871;DHT22;422;51.280;7.236;2023-12-04T10:26:57;1.40;99.90
871;DHT22;422;51.280;7.236;2023-12-04T10:29:29;1.40;99.90
871;DHT22;422;51.280;7.236;2023-12-04T10:31:59;1.40;99.90
871;DHT22;422;51.280;7.236;2023-12-04T10:34:26;1.50;99.90
871;DHT22;422;51.280;7.236;2023-12-04T10:36:53;1.50;99.90
871;DHT22;422;51.280;7.236;2023-12-04T10:39:21;1.50;99.90
871;DHT22;422;51.280;7.236;2023-12-04T10:42:01;1.50;99.90
871;DHT22;422;51.280;7.236;2023-12-04T10:44:30;1.50;99.90
871;DHT22;422;51.280;7.236;2023-12-04T10:46:59;1.50;99.90
871;DHT22;422;51.280;7.236;2023-12-04T10:49:28;1.50;99.90
871;DHT22;422;51.280;7.236;2023-12-04T10:51:58;1.50;99.90
871;DHT22;422;51.280;7.236;2023-12-04T10:54:27;1.50;99.90
871;DHT22;422;51.280;7.236;2023-12-04T10:57:00;1.40;99.90
871;DHT22;422;51.280;7.236;2023-12-04T10:59:36;1.40;99.90
871;DHT22;422;51.280;7.236;2023-12-04T11:02:05;1.40;99.90
871;DHT22;422;51.280;7.236;2023-12-04T11:04:36;1.40;99.90
871;DHT22;422;51.280;7.236;2023-12-04T11:07:05;1.40;99.90
871;DHT22;422;51.280;7.236;2023-12-04T11:09:35;1.40;99.90
871;DHT22;422;51.280;7.236;2023-12-04T11:12:08;1.40;99.90
871;DHT22;422;51.280;7.236;2023-12-04T11:14:42;1.40;99.90
871;DHT22;422;51.280;7.236;2023-12-04T11:17:14;1.40;99.90
871;DHT22;422;51.280;7.236;2023-12-04T11:19:47;1.40;99.90
871;DHT22;422;51.280;7.236;2023-12-04T11:22:18;1.40;99.90
871;DHT22;422;51.280;7.236;2023-12-04T11:24:47;1.40;99.90
871;DHT22;422;51.280;7.236;2023-12-04T11:27:17;1.40;99.90
871;DHT22;422;51.280;7.236;2023-12-04T11:29:45;1.40;99.90
871;DHT22;422;51.280;7.236;2023-12-04T11:32:14;1.40;99.90
871;DHT22;422;51.280;7.236;2023-12-04T11:34:48;1.40;99.90
871;DHT22;422;51.280;7.236;2023-12-04T11:37:15;1.40;99.90
871;DHT22;422;51.280;7.236;2023-12-04T11:39:45;1.40;99.90
871;DHT22;422;51.280;7.236;2023-12-04T11:42:16;1.50;99.90
871;DHT22;422;51.280;7.236;2023-12-04T11:44:48;1.50;99.90
871;DHT22;422;51.280;7.236;2023-12-04T11:47:15;1.60;99.90
871;DHT22;422;51.280;7.236;2023-12-04T11:49:46;1.60;99.90
871;DHT22;422;51.280;7.236;2023-12-04T11:52:14;1.70;99.90
871;DHT22;422;51.280;7.236;2023-12-04T11:54:58;1.70;99.90
871;DHT22;422;51.280;7.236;2023-12-04T11:57:27;1.70;99.90
871;DHT22;422;51.280;7.236;2023-12-04T12:00:19;1.70;99.90
871;DHT22;422;51.280;7.236;2023-12-04T12:03:00;1.60;99.90
871;DHT22;422;51.280;7.236;2023-12-04T12:05:32;1.60;99.90
871;DHT22;422;51.280;7.236;2023-12-04T12:08:04;1.60;99.90
871;DHT22;422;51.280;7.236;2023-12-04T12:10:32;1.60;99.90
871;DHT22;422;51.280;7.236;2023-12-04T12:13:01;1.50;99.90
871;DHT22;422;51.280;7.236;2023-12-04T12:15:28;1.50;99.90
871;DHT22;422;51.280;7.236;2023-12-04T12:17:56;1.60;99.90
871;DHT22;422;51.280;7.236;2023-12-04T12:20:23;1.60;99.90
871;DHT22;422;51.280;7.236;2023-12-04T12:22:50;1.70;99.90
871;DHT22;422;51.280;7.236;2023-12-04T12:25:18;1.70;99.90
871;DHT22;422;51.280;7.236;2023-12-04T12:27:46;1.70;99.90
871;DHT22;422;51.280;7.236;2023-12-04T12:30:14;1.70;99.90
871;DHT22;422;51.280;7.236;2023-12-04T12:32:42;1.60;99.90
871;DHT22;422;51.280;7.236;2023-12-04T12:35:09;1.60;99.90
871;DHT22;422;51.280;7.236;2023-12-04T12:37:38;1.60;1.00
871;DHT22;422;51.280;7.236;2023-12-04T12:40:06;1.50;1.00
871;DHT22;422;51.280;7.236;2023-12-04T12:42:36;1.50;1.00
871;DHT22;422;51.280;7.236;2023-12-04T12:45:05;1.40;1.00
871;DHT22;422;51.280;7.236;2023-12-04T12:47:37;1.40;1.00
871;DHT22;422;51.280;7.236;2023-12-04T12:50:08;1.30;1.00
871;DHT22;422;51.280;7.236;2023-12-04T12:52:39;1.40;1.00
871;DHT22;422;51.280;7.236;2023-12-04T12:55:07;1.40;1.00
871;DHT22;422;51.280;7.236;2023-12-04T12:57:35;1.40;1.00
871;DHT22;422;51.280;7.236;2023-12-04T13:00:03;1.40;1.00
871;DHT22;422;51.280;7.236;2023-12-04T13:02:36;1.40;1.00
871;DHT22;422;51.280;7.236;2023-12-04T13:05:05;1.30;1.00
871;DHT22;422;51.280;7.236;2023-12-04T13:07:33;1.30;1.00
871;DHT22;422;51.280;7.236;2023-12-04T13:10:00;1.40;1.00
871;DHT22;422;51.280;7.236;2023-12-04T13:12:30;1.30;1.00
871;DHT22;422;51.280;7.236;2023-12-04T13:14:58;1.30;1.00
871;DHT22;422;51.280;7.236;2023-12-04T13:17:25;1.30;1.00
871;DHT22;422;51.280;7.236;2023-12-04T13:19:54;1.30;1.00
871;DHT22;422;51.280;7.236;2023-12-04T13:22:21;1.40;1.00
871;DHT22;422;51.280;7.236;2023-12-04T13:24:48;1.40;1.00
871;DHT22;422;51.280;7.236;2023-12-04T13:27:16;1.40;1.00
871;DHT22;422;51.280;7.236;2023-12-04T13:29:43;1.40;1.00
871;DHT22;422;51.280;7.236;2023-12-04T13:32:10;1.40;1.00
871;DHT22;422;51.280;7.236;2023-12-04T13:34:38;1.40;1.00
871;DHT22;422;51.280;7.236;2023-12-04T13:37:07;1.50;1.00
871;DHT22;422;51.280;7.236;2023-12-04T13:39:34;1.50;1.00
871;DHT22;422;51.280;7.236;2023-12-04T13:42:13;1.50;1.00
871;DHT22;422;51.280;7.236;2023-12-04T13:44:58;1.60;1.00
871;DHT22;422;51.280;7.236;2023-12-04T13:47:25;1.60;1.00
871;DHT22;422;51.280;7.236;2023-12-04T13:49:52;1.70;1.00
871;DHT22;422;51.280;7.236;2023-12-04T13:52:22;1.80;1.00
871;DHT22;422;51.280;7.236;2023-12-04T13:54:50;1.80;1.00
871;DHT22;422;51.280;7.236;2023-12-04T13:57:20;1.70;1.00
871;DHT22;422;51.280;7.236;2023-12-04T13:59:52;1.70;1.00
871;DHT22;422;51.280;7.236;2023-12-04T14:02:20;1.70;37.70
871;DHT22;422;51.280;7.236;2023-12-04T14:04:47;1.70;82.80
871;DHT22;422;51.280;7.236;2023-12-04T14:07:15;1.60;99.90
871;DHT22;422;51.280;7.236;2023-12-04T14:09:45;1.60;99.90
871;DHT22;422;51.280;7.236;2023-12-04T14:12:13;1.60;99.90
871;DHT22;422;51.280;7.236;2023-12-04T14:14:41;1.60;99.90
871;DHT22;422;51.280;7.236;2023-12-04T14:17:09;1.70;99.90
871;DHT22;422;51.280;7.236;2023-12-04T14:19:37;1.70;99.90
871;DHT22;422;51.280;7.236;2023-12-04T14:22:06;1.70;99.90
871;DHT22;422;51.280;7.236;2023-12-04T14:24:33;1.70;99.90
871;DHT22;422;51.280;7.236;2023-12-04T14:27:02;1.70;99.90
871;DHT22;422;51.280;7.236;2023-12-04T14:29:31;1.70;99.90
871;DHT22;422;51.280;7.236;2023-12-04T14:31:58;1.70;99.90
871;DHT22;422;51.280;7.236;2023-12-04T14:34:26;1.60;99.90
871;DHT22;422;51.280;7.236;2023-12-04T14:36:54;1.60;99.90
871;DHT22;422;51.280;7.236;2023-12-04T14:39:21;1.60;99.90
871;DHT22;422;51.280;7.236;2023-12-04T14:41:49;1.50;99.90
871;DHT22;422;51.280;7.236;2023-12-04T14:44:18;1.60;99.90
871;DHT22;422;51.280;7.236;2023-12-04T14:46:45;1.60;99.90
871;DHT22;422;51.280;7.236;2023-12-04T14:49:13;1.50;99.90
871;DHT22;422;51.280;7.236;2023-12-04T14:51:40;1.50;1.00
871;DHT22;422;51.280;7.236;2023-12-04T14:54:08;1.50;1.00
871;DHT22;422;51.280;7.236;2023-12-04T14:56:44;1.40;1.00
871;DHT22;422;51.280;7.236;2023-12-04T14:59:29;1.30;99.90
871;DHT22;422;51.280;7.236;2023-12-04T15:02:13;1.30;1.00
871;DHT22;422;51.280;7.236;2023-12-04T15:05:00;1.30;1.00
871;DHT22;422;51.280;7.236;2023-12-04T15:07:47;1.30;1.00
871;DHT22;422;51.280;7.236;2023-12-04T15:10:41;1.30;99.90
871;DHT22;422;51.280;7.236;2023-12-04T15:13:48;1.30;99.90
871;DHT22;422;51.280;7.236;2023-12-04T15:16:24;1.30;66.20
871;DHT22;422;51.280;7.236;2023-12-04T15:19:00;1.30;1.00
871;DHT22;422;51.280;7.236;2023-12-04T15:21:53;1.20;1.00
871;DHT22;422;51.280;7.236;2023-12-04T15:24:20;1.30;99.90
871;DHT22;422;51.280;7.236;2023-12-04T15:26:48;1.30;1.00
871;DHT22;422;51.280;7.236;2023-12-04T15:29:14;1.30;99.90
871;DHT22;422;51.280;7.236;2023-12-04T15:31:46;1.40;1.00
871;DHT22;422;51.280;7.236;2023-12-04T15:34:12;1.40;1.00
871;DHT22;422;51.280;7.236;2023-12-04T15:36:39;1.40;1.00
871;DHT22;422;51.280;7.236;2023-12-04T15:39:05;1.40;1.00
871;DHT22;422;51.280;7.236;2023-12-04T15:41:35;1.40;1.00
871;DHT22;422;51.280;7.236;2023-12-04T15:44:02;1.40;1.00
871;DHT22;422;51.280;7.236;2023-12-04T15:46:29;1.40;1.00
871;DHT22;422;51.280;7.236;2023-12-04T15:48:58;1.40;1.00
871;DHT22;422;51.280;7.236;2023-12-04T15:51:25;1.40;1.00
871;DHT22;422;51.280;7.236;2023-12-04T15:53:52;1.40;1.00
871;DHT22;422;51.280;7.236;2023-12-04T15:56:19;1.40;1.00
871;DHT22;422;51.280;7.236;2023-12-04T15:58:47;1.30;1.00
871;DHT22;422;51.280;7.236;2023-12-04T16:01:14;1.30;1.00
871;DHT22;422;51.280;7.236;2023-12-04T16:03:41;1.30;1.00
871;DHT22;422;51.280;7.236;2023-12-04T16:06:10;1.30;43.20
871;DHT22;422;51.280;7.236;2023-12-04T16:08:38;1.30;99.90
871;DHT22;422;51.280;7.236;2023-12-04T16:11:05;1.30;99.90
871;DHT22;422;51.280;7.236;2023-12-04T16:13:33;1.30;1.00
871;DHT22;422;51.280;7.236;2023-12-04T16:16:00;1.30;99.90
871;DHT22;422;51.280;7.236;2023-12-04T16:18:28;1.30;1.00
871;DHT22;422;51.280;7.236;2023-12-04T16:20:56;1.20;99.90
871;DHT22;422;51.280;7.236;2023-12-04T16:23:25;1.20;1.00
871;DHT22;422;51.280;7.236;2023-12-04T16:25:52;1.20;99.90
871;DHT22;422;51.280;7.236;2023-12-04T16:28:20;1.10;1.00
871;DHT22;422;51.280;7.236;2023-12-04T16:30:48;1.10;1.00
871;DHT22;422;51.280;7.236;2023-12-04T16:33:15;1.10;99.90
871;DHT22;422;51.280;7.236;2023-12-04T16:35:42;1.10;99.90
871;DHT22;422;51.280;7.236;2023-12-04T16:38:10;1.10;99.90
871;DHT22;422;51.280;7.236;2023-12-04T16:40:39;1.10;6.60
871;DHT22;422;51.280;7.236;2023-12-04T16:43:07;1.10;99.90
871;DHT22;422;51.280;7.236;2023-12-04T16:45:34;1.10;99.90
871;DHT22;422;51.280;7.236;2023-12-04T16:48:01;1.10;99.90
871;DHT22;422;51.280;7.236;2023-12-04T16:50:29;1.00;1.00
871;DHT22;422;51.280;7.236;2023-12-04T16:52:57;1.00;1.00
871;DHT22;422;51.280;7.236;2023-12-04T16:55:25;1.00;1.00
871;DHT22;422;51.280;7.236;2023-12-04T16:57:54;1.00;1.00
871;DHT22;422;51.280;7.236;2023-12-04T17:00:25;1.10;1.00
871;DHT22;422;51.280;7.236;2023-12-04T17:02:52;1.10;1.00
871;DHT22;422;51.280;7.236;2023-12-04T17:05:19;1.10;1.00